createdAt,value
2023-01-18T00:01:16.352Z,90.44
2023-01-18T00:03:43.563Z,90.65
2023-01-18T00:06:11.558Z,90.70
2023-01-18T00:08:40.260Z,90.52
2023-01-18T00:11:17.214Z,90.84
2023-01-18T00:13:44.970Z,91.09
2023-01-18T00:16:15.825Z,91.02
2023-01-18T00:18:43.985Z,91.50
2023-01-18T00:21:12.367Z,91.65
2023-01-18T00:23:39.799Z,92.35
2023-01-18T00:26:10.293Z,92.64
2023-01-18T00:28:38.843Z,92.45
2023-01-18T00:31:21.079Z,92.93
2023-01-18T00:33:50.298Z,93.18
2023-01-18T00:36:18.533Z,93.12
2023-01-18T00:38:51.827Z,92.97
2023-01-18T00:41:20.196Z,93.40
2023-01-18T00:43:47.825Z,94.10
2023-01-18T00:46:25.347Z,94.89
2023-01-18T00:48:54.876Z,95.97
2023-01-18T00:51:25.264Z,96.21
2023-01-18T00:53:52.596Z,96.23
2023-01-18T00:56:22.902Z,97.74
2023-01-18T00:58:50.279Z,98.11
2023-01-18T01:01:17.772Z,98.45
2023-01-18T01:04:03.563Z,99.04
2023-01-18T01:06:45.072Z,99.02
2023-01-18T01:09:16.339Z,97.58
2023-01-18T01:12:02.724Z,97.79
2023-01-18T01:14:49.234Z,98.13
2023-01-18T01:17:35.124Z,98.34
2023-01-18T01:20:20.984Z,97.92
2023-01-18T01:23:06.957Z,97.76
2023-01-18T01:25:55.485Z,98.01
2023-01-18T01:28:22.816Z,98.77
2023-01-18T01:30:50.127Z,98.91
2023-01-18T01:33:18.505Z,98.31
2023-01-18T01:35:45.685Z,97.77
2023-01-18T01:38:12.731Z,97.13
2023-01-18T01:40:39.824Z,97.14
2023-01-18T01:43:13.423Z,97.79
2023-01-18T01:45:40.811Z,97.92
2023-01-18T01:48:09.876Z,98.19
2023-01-18T01:50:40.078Z,98.25
2023-01-18T01:53:08.868Z,98.12
2023-01-18T01:55:39.456Z,98.30
2023-01-18T01:58:20.261Z,97.78
2023-01-18T02:00:47.457Z,97.69
2023-01-18T02:03:20.088Z,97.66
2023-01-18T02:05:57.315Z,97.64
2023-01-18T02:08:25.887Z,98.00
2023-01-18T02:10:53.161Z,98.74
2023-01-18T02:13:22.935Z,100.00
2023-01-18T02:16:00.688Z,100.00
2023-01-18T02:18:59.695Z,99.37
2023-01-18T02:21:45.827Z,99.24
2023-01-18T02:24:40.384Z,99.04
2023-01-18T02:27:43.833Z,99.97
2023-01-18T02:30:36.376Z,99.39
2023-01-18T02:33:19.245Z,99.59
2023-01-18T02:35:56.551Z,100.00
2023-01-18T02:38:38.057Z,100.00
2023-01-18T02:42:06.976Z,99.67
2023-01-18T02:45:04.088Z,100.00
2023-01-18T02:47:32.607Z,100.00
2023-01-18T02:49:59.914Z,99.98
2023-01-18T02:52:47.411Z,100.00
2023-01-18T02:55:46.536Z,100.00
2023-01-18T02:58:36.228Z,99.93
2023-01-18T03:01:46.943Z,99.27
2023-01-18T03:04:22.091Z,100.00
2023-01-18T03:06:59.990Z,99.97
2023-01-18T03:09:27.797Z,100.00
2023-01-18T03:12:46.260Z,100.00
2023-01-18T03:15:29.098Z,100.00
2023-01-18T03:18:01.024Z,100.00
2023-01-18T03:20:33.252Z,100.00
2023-01-18T03:23:41.346Z,100.00
2023-01-18T03:26:16.912Z,100.00
2023-01-18T03:29:12.398Z,100.00
2023-01-18T03:32:12.442Z,100.00
2023-01-18T03:35:00.234Z,100.00
2023-01-18T03:37:33.847Z,100.00
2023-01-18T03:40:18.488Z,100.00
2023-01-18T03:43:01.746Z,100.00
2023-01-18T03:45:43.772Z,100.00
2023-01-18T03:48:11.811Z,100.00
2023-01-18T03:51:15.908Z,100.00
2023-01-18T03:54:15.364Z,100.00
2023-01-18T03:57:06.426Z,100.00
2023-01-18T03:59:37.687Z,100.00
2023-01-18T04:02:09.289Z,100.00
2023-01-18T04:04:36.538Z,100.00
2023-01-18T04:07:04.336Z,100.00
2023-01-18T04:09:31.536Z,100.00
2023-01-18T04:11:58.810Z,100.00
2023-01-18T04:14:26.061Z,100.00
2023-01-18T04:16:53.191Z,100.00
2023-01-18T04:19:20.241Z,100.00
2023-01-18T04:21:47.270Z,100.00
2023-01-18T04:24:14.645Z,100.00
2023-01-18T04:26:41.687Z,100.00
2023-01-18T04:29:09.224Z,100.00
2023-01-18T04:31:36.429Z,100.00
2023-01-18T04:34:03.628Z,100.00
2023-01-18T04:36:30.837Z,100.00
2023-01-18T04:38:58.180Z,100.00
2023-01-18T04:41:25.803Z,100.00
2023-01-18T04:43:52.908Z,100.00
2023-01-18T04:46:20.044Z,100.00
2023-01-18T04:48:51.722Z,100.00
2023-01-18T04:51:20.125Z,100.00
2023-01-18T04:53:48.033Z,100.00
2023-01-18T04:56:15.538Z,100.00
2023-01-18T04:58:43.166Z,100.00
2023-01-18T05:01:14.456Z,100.00
2023-01-18T05:03:41.830Z,100.00
2023-01-18T05:06:11.875Z,100.00
2023-01-18T05:08:41.167Z,100.00
2023-01-18T05:11:14.501Z,100.00
2023-01-18T05:13:42.299Z,100.00
2023-01-18T05:16:19.018Z,100.00
2023-01-18T05:18:46.511Z,100.00
2023-01-18T05:21:14.807Z,100.00
2023-01-18T05:23:42.212Z,100.00
2023-01-18T05:26:18.529Z,100.00
2023-01-18T05:28:45.892Z,100.00
2023-01-18T05:31:14.933Z,100.00
2023-01-18T05:33:42.474Z,100.00
2023-01-18T05:36:09.915Z,100.00
2023-01-18T05:38:36.989Z,100.00
2023-01-18T05:41:04.151Z,100.00
2023-01-18T05:43:31.781Z,100.00
2023-01-18T05:45:59.697Z,100.00
2023-01-18T05:48:27.387Z,100.00
2023-01-18T05:50:54.485Z,100.00
2023-01-18T05:53:22.977Z,100.00
2023-01-18T05:55:58.499Z,100.00
2023-01-18T05:58:27.503Z,100.00
2023-01-18T06:00:55.674Z,100.00
2023-01-18T06:03:25.262Z,100.00
2023-01-18T06:05:52.914Z,100.00
2023-01-18T06:08:20.904Z,100.00
2023-01-18T06:10:59.376Z,100.00
2023-01-18T06:13:29.618Z,100.00
2023-01-18T06:15:58.447Z,100.00
2023-01-18T06:18:28.133Z,100.00
2023-01-18T06:20:59.113Z,100.00
2023-01-18T06:23:28.266Z,100.00
2023-01-18T06:25:55.354Z,100.00
2023-01-18T06:28:22.748Z,100.00
2023-01-18T06:30:53.685Z,100.00
2023-01-18T06:33:21.455Z,100.00
2023-01-18T06:35:48.769Z,100.00
2023-01-18T06:38:15.921Z,100.00
2023-01-18T06:40:42.960Z,100.00
2023-01-18T06:43:10.440Z,100.00
2023-01-18T06:45:37.540Z,100.00
2023-01-18T06:48:04.785Z,100.00
2023-01-18T06:50:32.179Z,100.00
2023-01-18T06:52:59.708Z,100.00
2023-01-18T06:55:27.065Z,100.00
2023-01-18T06:57:55.119Z,100.00
2023-01-18T07:00:23.661Z,100.00
2023-01-18T07:02:53.037Z,100.00
2023-01-18T07:05:20.188Z,100.00
2023-01-18T07:07:47.435Z,100.00
2023-01-18T07:10:16.805Z,100.00
2023-01-18T07:12:48.599Z,100.00
2023-01-18T07:15:21.916Z,100.00
2023-01-18T07:17:50.638Z,100.00
2023-01-18T07:20:18.525Z,100.00
2023-01-18T07:22:45.752Z,100.00
2023-01-18T07:25:13.581Z,100.00
2023-01-18T07:27:44.552Z,100.00
2023-01-18T07:30:12.495Z,100.00
2023-01-18T07:32:40.747Z,100.00
2023-01-18T07:35:08.214Z,100.00
2023-01-18T07:37:36.079Z,100.00
2023-01-18T07:40:03.719Z,100.00
2023-01-18T07:42:30.731Z,100.00
2023-01-18T07:44:57.756Z,100.00
2023-01-18T07:47:24.804Z,100.00
2023-01-18T07:49:51.833Z,100.00
2023-01-18T07:52:19.864Z,100.00
2023-01-18T07:54:46.945Z,100.00
2023-01-18T07:57:13.948Z,100.00
2023-01-18T07:59:41.030Z,100.00
2023-01-18T08:02:12.703Z,100.00
2023-01-18T08:04:40.594Z,100.00
2023-01-18T08:07:09.199Z,100.00
2023-01-18T08:09:36.361Z,100.00
2023-01-18T08:12:03.685Z,100.00
2023-01-18T08:14:30.806Z,100.00
2023-01-18T08:16:57.871Z,100.00
2023-01-18T08:19:25.212Z,100.00
2023-01-18T08:21:52.253Z,100.00
2023-01-18T08:24:19.327Z,100.00
2023-01-18T08:26:46.409Z,100.00
2023-01-18T08:29:14.039Z,100.00
2023-01-18T08:31:41.072Z,100.00
2023-01-18T08:34:08.208Z,100.00
2023-01-18T08:36:35.230Z,100.00
2023-01-18T08:39:02.318Z,100.00
2023-01-18T08:41:30.545Z,100.00
2023-01-18T08:43:59.351Z,100.00
2023-01-18T08:46:26.775Z,100.00
2023-01-18T08:48:59.451Z,100.00
2023-01-18T08:51:26.591Z,100.00
2023-01-18T08:53:57.495Z,100.00
2023-01-18T08:56:25.259Z,100.00
2023-01-18T08:58:52.478Z,100.00
2023-01-18T09:01:19.777Z,100.00
2023-01-18T09:03:48.805Z,100.00
2023-01-18T09:06:16.935Z,100.00
2023-01-18T09:08:46.465Z,100.00
2023-01-18T09:11:13.512Z,100.00
2023-01-18T09:13:58.475Z,100.00
2023-01-18T09:16:26.847Z,100.00
2023-01-18T09:18:56.322Z,100.00
2023-01-18T09:21:24.275Z,100.00
2023-01-18T09:23:51.366Z,100.00
2023-01-18T09:26:20.857Z,100.00
2023-01-18T09:28:53.301Z,100.00
2023-01-18T09:31:24.192Z,100.00
2023-01-18T09:33:53.882Z,100.00
2023-01-18T09:36:26.280Z,100.00
2023-01-18T09:38:55.131Z,100.00
2023-01-18T09:41:30.758Z,100.00
2023-01-18T09:44:20.402Z,100.00
2023-01-18T09:46:54.503Z,100.00
2023-01-18T09:49:55.450Z,100.00
2023-01-18T09:53:12.488Z,100.00
2023-01-18T09:55:47.650Z,100.00
2023-01-18T09:59:06.845Z,100.00
2023-01-18T10:01:36.316Z,100.00
2023-01-18T10:04:27.027Z,100.00
2023-01-18T10:07:02.647Z,100.00
2023-01-18T10:09:54.328Z,100.00
2023-01-18T10:12:36.603Z,100.00
2023-01-18T10:15:31.964Z,100.00
2023-01-18T10:18:00.953Z,100.00
2023-01-18T10:21:02.212Z,100.00
2023-01-18T10:23:44.680Z,100.00
2023-01-18T10:26:30.732Z,100.00
2023-01-18T10:29:26.546Z,100.00
2023-01-18T10:32:08.308Z,100.00
2023-01-18T10:34:39.377Z,100.00
2023-01-18T10:37:14.880Z,100.00
2023-01-18T10:39:57.537Z,100.00
2023-01-18T10:42:49.712Z,100.00
2023-01-18T10:45:26.782Z,100.00
2023-01-18T10:47:56.386Z,100.00
2023-01-18T10:50:38.236Z,100.00
2023-01-18T10:53:23.863Z,100.00
2023-01-18T10:56:17.038Z,100.00
2023-01-18T10:58:55.839Z,100.00
2023-01-18T11:01:30.142Z,100.00
2023-01-18T11:04:24.780Z,100.00
2023-01-18T11:07:04.008Z,100.00
2023-01-18T11:09:59.404Z,100.00
2023-01-18T11:12:48.055Z,100.00
2023-01-18T11:15:15.089Z,100.00
2023-01-18T11:18:00.486Z,100.00
2023-01-18T11:20:51.682Z,100.00
2023-01-18T11:23:37.823Z,100.00
2023-01-18T11:26:24.087Z,100.00
2023-01-18T11:28:58.218Z,100.00
2023-01-18T11:31:29.690Z,100.00
2023-01-18T11:34:01.718Z,100.00
2023-01-18T11:36:46.982Z,100.00
2023-01-18T11:39:23.060Z,100.00
2023-01-18T11:41:51.244Z,100.00
2023-01-18T11:44:27.280Z,100.00
2023-01-18T11:46:59.051Z,100.00
2023-01-18T11:50:28.605Z,100.00
2023-01-18T11:53:27.496Z,100.00
2023-01-18T11:56:09.925Z,100.00
2023-01-18T11:58:37.539Z,100.00
2023-01-18T12:01:07.501Z,100.00
2023-01-18T12:04:14.311Z,100.00
2023-01-18T12:06:56.119Z,100.00
2023-01-18T12:09:52.925Z,100.00
2023-01-18T12:13:02.319Z,100.00
2023-01-18T12:16:03.822Z,100.00
2023-01-18T12:18:57.456Z,100.00
2023-01-18T12:22:12.078Z,100.00
2023-01-18T12:25:48.003Z,100.00
2023-01-18T12:28:47.214Z,100.00
2023-01-18T12:31:38.876Z,100.00
2023-01-18T12:34:23.574Z,100.00
2023-01-18T12:37:23.780Z,99.80
2023-01-18T12:40:06.526Z,99.78
2023-01-18T12:43:10.223Z,100.00
2023-01-18T12:45:52.984Z,100.00
2023-01-18T12:48:30.407Z,99.78
2023-01-18T12:51:00.496Z,100.00
2023-01-18T12:54:03.869Z,100.00
2023-01-18T12:56:40.407Z,99.49
2023-01-18T12:59:32.557Z,99.21
2023-01-18T13:02:30.020Z,99.64
2023-01-18T13:05:13.039Z,98.86
2023-01-18T13:07:45.400Z,98.62
2023-01-18T13:10:28.915Z,98.12
2023-01-18T13:12:57.828Z,97.79
2023-01-18T13:15:38.531Z,98.21
2023-01-18T13:18:29.169Z,98.51
2023-01-18T13:21:43.038Z,98.35
2023-01-18T13:24:30.975Z,97.87
2023-01-18T13:27:14.635Z,97.68
2023-01-18T13:29:43.972Z,98.70
2023-01-18T13:32:34.627Z,99.00
2023-01-18T13:35:25.991Z,99.06
2023-01-18T13:37:58.212Z,99.99
2023-01-18T13:40:34.723Z,98.89
2023-01-18T13:43:02.533Z,98.71
2023-01-18T13:45:31.150Z,99.01
2023-01-18T13:48:05.677Z,99.73
2023-01-18T13:50:34.597Z,100.00
2023-01-18T13:53:14.057Z,99.48
2023-01-18T13:56:25.831Z,99.77
2023-01-18T13:59:13.348Z,98.64
2023-01-18T14:01:44.889Z,98.58
2023-01-18T14:04:30.951Z,98.15
2023-01-18T14:07:03.097Z,97.99
2023-01-18T14:09:47.924Z,98.17
2023-01-18T14:12:15.856Z,97.35
2023-01-18T14:14:59.481Z,97.77
2023-01-18T14:17:27.377Z,97.24
2023-01-18T14:20:21.583Z,96.41
2023-01-18T14:23:29.775Z,96.20
2023-01-18T14:26:11.549Z,96.54
2023-01-18T14:28:45.654Z,96.32
2023-01-18T14:31:23.950Z,96.20
2023-01-18T14:33:51.174Z,95.80
2023-01-18T14:36:26.486Z,95.90
2023-01-18T14:39:17.103Z,96.18
2023-01-18T14:42:05.235Z,94.94
2023-01-18T14:44:58.389Z,95.57
2023-01-18T14:47:31.237Z,94.91
2023-01-18T14:49:59.114Z,94.75
2023-01-18T14:52:34.091Z,95.31
2023-01-18T14:55:01.223Z,95.10
2023-01-18T14:57:28.269Z,95.62
2023-01-18T15:00:17.135Z,95.30
2023-01-18T15:02:44.588Z,95.37
2023-01-18T15:05:19.869Z,94.55
2023-01-18T15:07:54.141Z,94.86
2023-01-18T15:10:22.699Z,94.63
2023-01-18T15:12:58.155Z,94.58
2023-01-18T15:15:42.317Z,95.02
2023-01-18T15:18:19.559Z,95.08
2023-01-18T15:21:06.304Z,94.91
2023-01-18T15:23:36.670Z,94.42
2023-01-18T15:26:04.024Z,94.64
2023-01-18T15:28:34.035Z,94.75
2023-01-18T15:31:12.364Z,95.01
2023-01-18T15:33:40.063Z,94.54
2023-01-18T15:36:09.825Z,94.40
2023-01-18T15:38:37.456Z,94.28
2023-01-18T15:41:12.578Z,94.48
2023-01-18T15:43:44.871Z,94.69
2023-01-18T15:46:16.159Z,95.29
2023-01-18T15:48:55.594Z,95.13
2023-01-18T15:51:42.895Z,95.44
2023-01-18T15:54:27.445Z,95.23
2023-01-18T15:57:09.656Z,95.05
2023-01-18T15:59:37.027Z,95.58
2023-01-18T16:02:09.972Z,95.75
2023-01-18T16:04:37.459Z,95.59
2023-01-18T16:07:35.133Z,95.23
2023-01-18T16:10:28.113Z,94.74
2023-01-18T16:13:26.257Z,94.30
2023-01-18T16:16:20.711Z,94.95
2023-01-18T16:19:02.854Z,94.85
2023-01-18T16:21:50.115Z,95.39
2023-01-18T16:24:27.509Z,95.14
2023-01-18T16:26:56.829Z,94.89
2023-01-18T16:29:24.246Z,95.02
2023-01-18T16:31:51.275Z,94.67
2023-01-18T16:34:23.929Z,95.40
2023-01-18T16:36:53.207Z,95.14
2023-01-18T16:39:21.538Z,95.82
2023-01-18T16:41:56.375Z,95.40
2023-01-18T16:44:23.421Z,95.15
2023-01-18T16:46:50.543Z,95.16
2023-01-18T16:49:17.637Z,95.26
2023-01-18T16:51:44.722Z,95.53
2023-01-18T16:54:11.814Z,95.52
2023-01-18T16:56:39.813Z,95.48
2023-01-18T16:59:21.906Z,95.89
2023-01-18T17:01:49.915Z,95.40
2023-01-18T17:04:18.478Z,95.29
2023-01-18T17:06:45.496Z,95.60
2023-01-18T17:09:26.184Z,95.75
2023-01-18T17:11:53.892Z,95.61
2023-01-18T17:14:21.811Z,95.24
2023-01-18T17:16:49.641Z,95.88
2023-01-18T17:19:20.374Z,95.83
2023-01-18T17:21:49.369Z,95.76
2023-01-18T17:24:20.522Z,95.36
2023-01-18T17:26:48.128Z,95.07
2023-01-18T17:29:18.065Z,95.44
2023-01-18T17:31:52.375Z,95.64
2023-01-18T17:34:30.014Z,95.53
2023-01-18T17:36:58.856Z,95.74
2023-01-18T17:39:42.643Z,95.74
2023-01-18T17:42:22.325Z,95.78
2023-01-18T17:44:50.748Z,95.36
2023-01-18T17:47:17.918Z,95.52
2023-01-18T17:49:44.955Z,96.08
2023-01-18T17:52:12.012Z,95.73
2023-01-18T17:54:39.019Z,95.34
2023-01-18T17:57:06.071Z,95.43
2023-01-18T17:59:33.165Z,95.75
2023-01-18T18:02:00.243Z,95.75
2023-01-18T18:04:27.273Z,95.94
2023-01-18T18:06:58.490Z,96.09
2023-01-18T18:09:25.956Z,95.75
2023-01-18T18:11:53.068Z,95.50
2023-01-18T18:14:20.228Z,95.55
2023-01-18T18:16:47.487Z,94.70
2023-01-18T18:19:14.867Z,94.87
2023-01-18T18:21:43.197Z,94.99
2023-01-18T18:24:10.226Z,95.07
2023-01-18T18:26:37.552Z,94.71
2023-01-18T18:29:05.213Z,94.43
2023-01-18T18:31:32.225Z,94.25
2023-01-18T18:33:59.279Z,93.76
2023-01-18T18:36:27.471Z,93.36
2023-01-18T18:38:54.718Z,92.96
2023-01-18T18:41:21.773Z,92.66
2023-01-18T18:43:48.801Z,92.81
2023-01-18T18:46:15.904Z,92.69
2023-01-18T18:48:43.052Z,92.47
2023-01-18T18:51:10.356Z,92.38
2023-01-18T18:53:39.342Z,92.16
2023-01-18T18:56:10.308Z,92.24
2023-01-18T18:58:39.169Z,92.13
2023-01-18T19:01:07.374Z,92.30
2023-01-18T19:03:36.058Z,91.60
2023-01-18T19:06:03.235Z,91.94
2023-01-18T19:08:31.085Z,91.69
2023-01-18T19:10:58.324Z,91.62
2023-01-18T19:13:25.424Z,91.67
2023-01-18T19:15:52.873Z,91.43
2023-01-18T19:18:20.001Z,91.00
2023-01-18T19:20:49.763Z,91.12
2023-01-18T19:23:17.237Z,91.59
2023-01-18T19:25:44.561Z,91.67
2023-01-18T19:28:11.641Z,92.00
2023-01-18T19:30:41.470Z,92.02
2023-01-18T19:33:09.383Z,91.46
2023-01-18T19:35:43.885Z,91.90
2023-01-18T19:38:11.174Z,92.43
2023-01-18T19:40:38.929Z,92.18
2023-01-18T19:43:06.296Z,91.91
2023-01-18T19:45:33.856Z,92.21
2023-01-18T19:48:01.882Z,91.99
2023-01-18T19:50:30.968Z,91.90
2023-01-18T19:52:58.797Z,92.31
2023-01-18T19:55:26.029Z,92.78
2023-01-18T19:57:57.892Z,92.90
2023-01-18T20:00:25.892Z,92.94
2023-01-18T20:02:53.650Z,92.74
2023-01-18T20:05:20.923Z,92.75
2023-01-18T20:07:48.113Z,93.01
2023-01-18T20:10:20.143Z,92.45
2023-01-18T20:12:49.444Z,92.58
2023-01-18T20:15:18.939Z,92.38
2023-01-18T20:17:46.636Z,92.28
2023-01-18T20:20:20.942Z,92.12
2023-01-18T20:22:54.550Z,92.51
2023-01-18T20:25:21.725Z,92.06
2023-01-18T20:27:48.889Z,92.44
2023-01-18T20:30:16.040Z,92.10
2023-01-18T20:32:43.217Z,92.02
2023-01-18T20:35:10.642Z,91.62
2023-01-18T20:37:37.867Z,91.28
2023-01-18T20:40:05.586Z,91.69
2023-01-18T20:42:32.596Z,91.74
2023-01-18T20:45:00.643Z,92.03
2023-01-18T20:47:28.449Z,92.24
2023-01-18T20:49:56.409Z,92.35
2023-01-18T20:52:23.503Z,92.27
2023-01-18T20:54:50.567Z,92.87
2023-01-18T20:57:18.826Z,92.96
2023-01-18T20:59:46.351Z,93.09
2023-01-18T21:02:13.687Z,93.00
2023-01-18T21:04:40.837Z,92.39
2023-01-18T21:07:08.151Z,92.12
2023-01-18T21:09:35.320Z,92.28
2023-01-18T21:12:02.474Z,92.68
2023-01-18T21:14:29.633Z,92.45
2023-01-18T21:16:56.700Z,92.29
2023-01-18T21:19:24.037Z,92.29
2023-01-18T21:21:51.158Z,92.87
2023-01-18T21:24:18.226Z,92.52
2023-01-18T21:26:45.389Z,92.50
2023-01-18T21:29:12.569Z,92.89
2023-01-18T21:31:41.031Z,92.90
2023-01-18T21:34:08.212Z,92.64
2023-01-18T21:36:35.325Z,92.89
2023-01-18T21:39:02.456Z,92.82
2023-01-18T21:41:48.319Z,93.33
2023-01-18T21:44:33.982Z,93.38
2023-01-18T21:47:01.917Z,93.11
2023-01-18T21:50:15.454Z,93.49
2023-01-18T21:52:53.556Z,93.60
2023-01-18T21:55:21.103Z,93.39
2023-01-18T21:58:10.735Z,93.32
2023-01-18T22:00:39.897Z,93.31
2023-01-18T22:03:07.328Z,92.92
2023-01-18T22:05:34.526Z,93.13
2023-01-18T22:08:02.005Z,93.13
2023-01-18T22:10:29.317Z,92.92
2023-01-18T22:12:56.454Z,93.00
2023-01-18T22:15:23.596Z,93.67
2023-01-18T22:17:50.750Z,93.33
2023-01-18T22:20:18.531Z,93.41
2023-01-18T22:22:46.684Z,93.48
2023-01-18T22:25:13.912Z,93.26
2023-01-18T22:27:41.005Z,93.08
2023-01-18T22:30:09.245Z,93.55
2023-01-18T22:32:36.304Z,93.41
2023-01-18T22:35:03.421Z,93.27
2023-01-18T22:37:31.308Z,93.32
2023-01-18T22:39:58.358Z,93.89
2023-01-18T22:42:25.963Z,93.67
2023-01-18T22:44:53.024Z,93.80
2023-01-18T22:47:20.084Z,93.45
2023-01-18T22:49:47.632Z,93.75
2023-01-18T22:52:14.777Z,93.87
2023-01-18T22:54:42.574Z,94.09
2023-01-18T22:57:09.946Z,93.98
2023-01-18T22:59:37.450Z,93.42
2023-01-18T23:02:04.954Z,93.68
2023-01-18T23:04:34.423Z,93.71
2023-01-18T23:07:01.621Z,93.67
2023-01-18T23:09:29.391Z,93.72
2023-01-18T23:11:56.726Z,93.68
2023-01-18T23:14:42.598Z,94.05
2023-01-18T23:17:30.921Z,94.62
2023-01-18T23:19:58.167Z,94.92
2023-01-18T23:22:25.332Z,94.87
2023-01-18T23:24:52.512Z,95.03
2023-01-18T23:27:19.784Z,94.73
2023-01-18T23:29:51.537Z,94.86
2023-01-18T23:32:18.682Z,94.63
2023-01-18T23:34:48.005Z,94.96
2023-01-18T23:37:15.111Z,94.41
2023-01-18T23:40:00.903Z,94.58
2023-01-18T23:42:46.439Z,95.06
2023-01-18T23:45:32.227Z,94.71
2023-01-18T23:48:25.798Z,94.78
2023-01-18T23:51:11.279Z,94.30
2023-01-18T23:53:57.244Z,94.39
2023-01-18T23:56:24.404Z,94.52
2023-01-18T23:58:51.556Z,94.55
